createdAt,value
2023-07-03T00:00:21.802Z,14.25
2023-07-03T00:01:21.759Z,14.27
2023-07-03T00:02:22.724Z,14.27
2023-07-03T00:03:21.690Z,14.25
2023-07-03T00:04:21.764Z,14.25
2023-07-03T00:05:21.205Z,14.24
2023-07-03T00:06:21.663Z,14.25
2023-07-03T00:07:21.638Z,14.25
2023-07-03T00:08:21.626Z,14.24
2023-07-03T00:09:21.592Z,14.27
2023-07-03T00:10:21.601Z,14.27
2023-07-03T00:11:21.580Z,14.24
2023-07-03T00:12:21.585Z,14.25
2023-07-03T00:13:21.565Z,14.25
2023-07-03T00:14:21.524Z,14.24
2023-07-03T00:15:21.528Z,14.25
2023-07-03T00:16:21.536Z,14.24
2023-07-03T00:17:21.511Z,14.25
2023-07-03T00:18:21.493Z,14.25
2023-07-03T00:19:21.455Z,14.25
2023-07-03T00:20:21.445Z,14.24
2023-07-03T00:21:21.443Z,14.24
2023-07-03T00:22:21.452Z,14.25
2023-07-03T00:23:21.426Z,14.25
2023-07-03T00:24:21.393Z,14.24
2023-07-03T00:25:21.386Z,14.28
2023-07-03T00:26:21.385Z,14.31
2023-07-03T00:27:21.359Z,14.31
2023-07-03T00:28:21.332Z,14.32
2023-07-03T00:29:21.309Z,14.32
2023-07-03T00:30:21.288Z,14.31
2023-07-03T00:31:21.334Z,14.29
2023-07-03T00:32:21.282Z,14.31
2023-07-03T00:33:21.266Z,14.32
2023-07-03T00:34:21.265Z,14.31
2023-07-03T00:35:21.225Z,14.32
2023-07-03T00:36:21.214Z,14.31
2023-07-03T00:37:21.216Z,14.29
2023-07-03T00:38:21.373Z,14.29
2023-07-03T00:39:21.191Z,14.29
2023-07-03T00:40:21.189Z,14.29
2023-07-03T00:41:21.152Z,14.28
2023-07-03T00:42:21.151Z,14.28
2023-07-03T00:43:21.112Z,14.27
2023-07-03T00:44:21.116Z,14.29
2023-07-03T00:45:21.070Z,14.27
2023-07-03T00:46:21.177Z,14.28
2023-07-03T00:47:21.086Z,14.29
2023-07-03T00:48:21.030Z,14.34
2023-07-03T00:49:21.028Z,14.37
2023-07-03T00:50:21.059Z,14.38
2023-07-03T00:51:21.011Z,14.42
2023-07-03T00:52:21.011Z,14.43
2023-07-03T00:53:20.966Z,14.46
2023-07-03T00:54:20.960Z,14.46
2023-07-03T00:55:20.958Z,14.44
2023-07-03T00:56:20.938Z,14.46
2023-07-03T00:57:20.921Z,14.47
2023-07-03T00:58:20.505Z,14.47
2023-07-03T00:59:20.889Z,14.50
2023-07-03T01:00:20.884Z,14.47
2023-07-03T01:01:20.858Z,14.50
2023-07-03T01:02:20.899Z,14.53
2023-07-03T01:03:20.847Z,14.53
2023-07-03T01:04:20.854Z,14.56
2023-07-03T01:05:20.926Z,14.60
2023-07-03T01:06:20.795Z,14.61
2023-07-03T01:07:20.777Z,14.60
2023-07-03T01:08:20.805Z,14.64
2023-07-03T01:09:18.797Z,14.62
2023-07-03T01:10:20.763Z,14.62
2023-07-03T01:11:20.724Z,14.62
2023-07-03T01:12:20.704Z,14.64
2023-07-03T01:13:20.700Z,14.64
2023-07-03T01:14:20.685Z,14.62
2023-07-03T01:15:20.683Z,14.65
2023-07-03T01:16:20.705Z,14.61
2023-07-03T01:17:20.675Z,14.62
2023-07-03T01:18:20.623Z,14.64
2023-07-03T01:19:20.627Z,14.64
2023-07-03T01:20:20.598Z,14.64
2023-07-03T01:21:20.583Z,14.62
2023-07-03T01:22:20.590Z,14.61
2023-07-03T01:23:20.711Z,14.62
2023-07-03T01:24:20.562Z,14.62
2023-07-03T01:25:18.814Z,14.64
2023-07-03T01:26:20.516Z,14.61
2023-07-03T01:27:20.539Z,14.62
2023-07-03T01:28:20.515Z,14.62
2023-07-03T01:29:20.489Z,14.64
2023-07-03T01:30:20.471Z,14.65
2023-07-03T01:31:20.467Z,14.65
2023-07-03T01:32:20.455Z,14.64
2023-07-03T01:33:20.436Z,14.65
2023-07-03T01:34:20.472Z,14.67
2023-07-03T01:35:20.398Z,14.65
2023-07-03T01:36:20.378Z,14.67
2023-07-03T01:37:20.372Z,14.67
2023-07-03T01:38:20.379Z,14.67
2023-07-03T01:39:20.346Z,14.67
2023-07-03T01:40:20.368Z,14.67
2023-07-03T01:41:20.332Z,14.68
2023-07-03T01:42:20.325Z,14.67
2023-07-03T01:43:20.323Z,14.69
2023-07-03T01:44:20.265Z,14.71
2023-07-03T01:45:20.270Z,14.69
2023-07-03T01:46:20.321Z,14.71
2023-07-03T01:47:20.286Z,14.72
2023-07-03T01:48:20.238Z,14.74
2023-07-03T01:49:20.207Z,14.78
2023-07-03T01:50:20.202Z,14.80
2023-07-03T01:51:20.168Z,14.80
2023-07-03T01:52:20.167Z,14.83
2023-07-03T01:53:20.154Z,14.83
2023-07-03T01:54:20.161Z,14.84
2023-07-03T01:55:19.825Z,14.86
2023-07-03T01:56:20.102Z,14.88
2023-07-03T01:57:20.117Z,14.88
2023-07-03T01:58:20.118Z,14.91
2023-07-03T01:59:20.060Z,14.93
2023-07-03T02:00:20.049Z,14.94
2023-07-03T02:01:20.095Z,14.94
2023-07-03T02:02:20.109Z,14.98
2023-07-03T02:03:20.060Z,14.99
2023-07-03T02:04:20.054Z,15.02
2023-07-03T02:05:19.980Z,15.02
2023-07-03T02:06:19.961Z,15.03
2023-07-03T02:07:19.988Z,15.05
2023-07-03T02:08:19.942Z,15.06
2023-07-03T02:09:19.954Z,15.08
2023-07-03T02:10:19.916Z,15.08
2023-07-03T02:11:19.911Z,15.06
2023-07-03T02:12:19.903Z,15.03
2023-07-03T02:13:19.865Z,15.05
2023-07-03T02:14:19.850Z,15.06
2023-07-03T02:15:19.866Z,15.06
2023-07-03T02:16:19.856Z,15.06
2023-07-03T02:17:19.858Z,15.06
2023-07-03T02:18:19.798Z,15.06
2023-07-03T02:19:19.775Z,15.09
2023-07-03T02:20:19.774Z,15.09
2023-07-03T02:21:19.764Z,15.09
2023-07-03T02:22:19.761Z,15.09
2023-07-03T02:23:19.721Z,15.11
2023-07-03T02:24:19.704Z,15.11
2023-07-03T02:25:19.709Z,15.11
2023-07-03T02:26:19.689Z,15.09
2023-07-03T02:27:19.680Z,15.08
2023-07-03T02:28:19.668Z,15.09
2023-07-03T02:29:19.661Z,15.06
2023-07-03T02:30:19.651Z,15.06
2023-07-03T02:31:19.780Z,15.09
2023-07-03T02:32:19.601Z,15.06
2023-07-03T02:33:19.595Z,15.06
2023-07-03T02:34:19.616Z,15.06
2023-07-03T02:35:19.571Z,15.05
2023-07-03T02:36:19.562Z,15.05
2023-07-03T02:37:19.549Z,15.02
2023-07-03T02:38:19.538Z,15.02
2023-07-03T02:39:19.509Z,15.02
2023-07-03T02:40:19.504Z,15.01
2023-07-03T02:41:19.488Z,14.99
2023-07-03T02:42:19.499Z,14.99
2023-07-03T02:43:19.467Z,14.95
2023-07-03T02:44:19.447Z,14.94
2023-07-03T02:45:19.437Z,14.94
2023-07-03T02:46:19.405Z,14.91
2023-07-03T02:47:19.470Z,14.90
2023-07-03T02:48:19.420Z,14.87
2023-07-03T02:49:19.385Z,14.87
2023-07-03T02:50:19.386Z,14.87
2023-07-03T02:51:19.373Z,14.88
2023-07-03T02:52:19.340Z,14.87
2023-07-03T02:53:19.311Z,14.87
2023-07-03T02:54:19.318Z,14.87
2023-07-03T02:55:19.303Z,14.75
2023-07-03T02:56:19.278Z,14.69
2023-07-03T02:57:19.271Z,14.71
2023-07-03T02:58:19.284Z,14.69
2023-07-03T02:59:19.252Z,14.71
2023-07-03T03:00:19.253Z,14.67
2023-07-03T03:01:19.361Z,14.64
2023-07-03T03:02:18.756Z,14.61
2023-07-03T03:03:19.258Z,14.57
2023-07-03T03:04:19.190Z,14.56
2023-07-03T03:05:19.153Z,14.54
2023-07-03T03:06:19.139Z,14.53
2023-07-03T03:07:19.131Z,14.52
2023-07-03T03:08:19.108Z,14.47
2023-07-03T03:09:19.100Z,14.49
2023-07-03T03:10:19.076Z,14.47
2023-07-03T03:11:19.085Z,14.47
2023-07-03T03:12:19.047Z,14.46
2023-07-03T03:13:19.063Z,14.46
2023-07-03T03:14:19.015Z,14.44
2023-07-03T03:15:19.006Z,14.39
2023-07-03T03:16:19.032Z,14.42
2023-07-03T03:17:18.975Z,14.42
2023-07-03T03:18:19.003Z,14.43
2023-07-03T03:19:18.970Z,14.42
2023-07-03T03:20:18.934Z,14.43
2023-07-03T03:21:18.957Z,14.42
2023-07-03T03:22:18.913Z,14.42
2023-07-03T03:23:18.917Z,14.39
2023-07-03T03:24:18.891Z,14.38
2023-07-03T03:25:18.874Z,14.37
2023-07-03T03:26:18.876Z,14.32
2023-07-03T03:27:18.875Z,14.31
2023-07-03T03:28:18.855Z,14.32
2023-07-03T03:29:18.827Z,14.31
2023-07-03T03:30:18.324Z,14.31
2023-07-03T03:31:18.933Z,14.29
2023-07-03T03:32:18.922Z,14.29
2023-07-03T03:33:18.775Z,14.25
2023-07-03T03:34:18.753Z,14.21
2023-07-03T03:35:18.736Z,14.17
2023-07-03T03:36:18.718Z,14.14
2023-07-03T03:37:18.711Z,14.16
2023-07-03T03:38:18.701Z,14.14
2023-07-03T03:39:18.682Z,14.13
2023-07-03T03:40:18.660Z,14.12
2023-07-03T03:41:18.653Z,14.10
2023-07-03T03:42:18.660Z,14.07
2023-07-03T03:43:18.621Z,14.06
2023-07-03T03:44:18.613Z,14.04
2023-07-03T03:45:18.600Z,14.04
2023-07-03T03:46:18.584Z,14.02
2023-07-03T03:47:18.681Z,14.02
2023-07-03T03:48:18.599Z,14.04
2023-07-03T03:49:18.543Z,13.99
2023-07-03T03:50:18.561Z,13.98
2023-07-03T03:51:18.520Z,13.96
2023-07-03T03:52:18.517Z,13.95
2023-07-03T03:53:18.491Z,13.98
2023-07-03T03:54:18.460Z,13.96
2023-07-03T03:55:18.470Z,13.96
2023-07-03T03:56:18.441Z,13.92
2023-07-03T03:57:18.448Z,13.94
2023-07-03T03:58:18.417Z,13.91
2023-07-03T03:59:18.406Z,13.91
2023-07-03T04:00:18.579Z,13.89
2023-07-03T04:01:18.395Z,13.88
2023-07-03T04:02:18.363Z,13.89
2023-07-03T04:03:18.346Z,13.89
2023-07-03T04:04:18.484Z,13.92
2023-07-03T04:05:18.378Z,13.91
2023-07-03T04:06:18.313Z,13.92
2023-07-03T04:07:18.305Z,13.94
2023-07-03T04:08:18.293Z,13.95
2023-07-03T04:09:18.261Z,13.99
2023-07-03T04:10:18.238Z,14.01
2023-07-03T04:11:18.250Z,14.04
2023-07-03T04:12:18.259Z,14.09
2023-07-03T04:13:18.199Z,14.14
2023-07-03T04:14:18.205Z,14.17
2023-07-03T04:15:18.169Z,14.21
2023-07-03T04:16:18.195Z,14.24
2023-07-03T04:17:18.158Z,14.25
2023-07-03T04:18:18.123Z,14.28
2023-07-03T04:19:18.137Z,14.31
2023-07-03T04:20:18.092Z,14.32
2023-07-03T04:21:19.154Z,14.35
2023-07-03T04:22:18.086Z,14.38
2023-07-03T04:23:18.068Z,14.39
2023-07-03T04:24:18.050Z,14.46
2023-07-03T04:25:18.051Z,14.49
2023-07-03T04:26:18.032Z,14.49
2023-07-03T04:27:18.014Z,14.49
2023-07-03T04:28:17.982Z,14.50
2023-07-03T04:29:18.005Z,14.54
2023-07-03T04:30:18.012Z,14.61
2023-07-03T04:31:18.009Z,14.65
2023-07-03T04:32:17.992Z,14.72
2023-07-03T04:33:17.910Z,14.78
2023-07-03T04:34:17.917Z,14.84
2023-07-03T04:35:17.910Z,14.93
2023-07-03T04:36:17.864Z,15.02
2023-07-03T04:37:17.882Z,15.12
2023-07-03T04:38:17.840Z,15.19
2023-07-03T04:39:17.834Z,15.23
2023-07-03T04:40:17.826Z,15.26
2023-07-03T04:41:17.802Z,15.27
2023-07-03T04:42:17.795Z,15.33
2023-07-03T04:43:17.794Z,15.41
2023-07-03T04:44:17.790Z,15.49
2023-07-03T04:45:17.758Z,15.54
2023-07-03T04:46:17.783Z,15.61
2023-07-03T04:47:17.739Z,15.70
2023-07-03T04:48:17.713Z,15.75
2023-07-03T04:49:17.717Z,15.81
2023-07-03T04:50:17.678Z,15.85
2023-07-03T04:51:17.694Z,15.93
2023-07-03T04:52:17.761Z,16.03
2023-07-03T04:53:17.632Z,16.12
2023-07-03T04:54:17.645Z,16.23
2023-07-03T04:55:17.614Z,16.31
2023-07-03T04:56:17.599Z,16.38
2023-07-03T04:57:17.585Z,16.40
2023-07-03T04:58:17.595Z,16.49
2023-07-03T04:59:17.562Z,16.53
2023-07-03T05:00:17.568Z,16.59
2023-07-03T05:01:17.587Z,16.58
2023-07-03T05:02:17.512Z,16.55
2023-07-03T05:03:17.582Z,16.62
2023-07-03T05:04:17.547Z,16.65
2023-07-03T05:05:17.490Z,16.71
2023-07-03T05:06:17.451Z,16.81
2023-07-03T05:07:17.467Z,16.88
2023-07-03T05:08:17.445Z,16.95
2023-07-03T05:09:17.423Z,16.88
2023-07-03T05:10:17.420Z,16.89
2023-07-03T05:11:17.393Z,16.86
2023-07-03T05:12:17.383Z,16.89
2023-07-03T05:13:17.393Z,16.90
2023-07-03T05:14:17.341Z,16.88
2023-07-03T05:15:17.338Z,16.85
2023-07-03T05:16:17.385Z,16.89
2023-07-03T05:17:17.304Z,16.93
2023-07-03T05:18:17.296Z,16.99
2023-07-03T05:19:16.861Z,16.98
2023-07-03T05:20:17.265Z,17.07
2023-07-03T05:21:17.258Z,17.22
2023-07-03T05:22:17.228Z,17.25
2023-07-03T05:23:17.249Z,17.22
2023-07-03T05:24:17.200Z,17.26
2023-07-03T05:25:17.193Z,17.28
2023-07-03T05:26:17.177Z,17.26
2023-07-03T05:27:17.206Z,17.30
2023-07-03T05:28:17.160Z,17.41
2023-07-03T05:29:17.144Z,17.41
2023-07-03T05:30:17.125Z,17.48
2023-07-03T05:31:17.148Z,17.44
2023-07-03T05:32:17.082Z,17.53
2023-07-03T05:33:17.119Z,17.66
2023-07-03T05:34:17.087Z,17.76
2023-07-03T05:35:17.077Z,17.50
2023-07-03T05:36:17.034Z,17.62
2023-07-03T05:37:17.036Z,17.55
2023-07-03T05:38:17.018Z,17.55
2023-07-03T05:39:17.084Z,17.70
2023-07-03T05:40:16.580Z,17.67
2023-07-03T05:41:16.956Z,17.74
2023-07-03T05:42:16.968Z,17.71
2023-07-03T05:43:16.940Z,17.63
2023-07-03T05:44:16.938Z,17.69
2023-07-03T05:45:16.932Z,17.84
2023-07-03T05:46:17.974Z,18.02
2023-07-03T05:47:16.985Z,18.03
2023-07-03T05:48:16.932Z,17.92
2023-07-03T05:49:16.852Z,18.00
2023-07-03T05:50:16.846Z,18.07
2023-07-03T05:51:16.892Z,18.18
2023-07-03T05:52:16.858Z,18.28
2023-07-03T05:53:16.811Z,18.37
2023-07-03T05:54:16.770Z,18.43
2023-07-03T05:55:16.802Z,18.50
2023-07-03T05:56:16.769Z,18.46
2023-07-03T05:57:16.778Z,18.31
2023-07-03T05:58:16.734Z,18.25
2023-07-03T05:59:16.729Z,18.33
2023-07-03T06:00:16.704Z,18.29
2023-07-03T06:01:16.788Z,18.10
2023-07-03T06:02:17.174Z,18.10
2023-07-03T06:03:18.482Z,18.12
2023-07-03T06:04:16.696Z,18.00
2023-07-03T06:05:16.670Z,18.03
2023-07-03T06:06:16.640Z,17.99
2023-07-03T06:07:16.615Z,18.04
2023-07-03T06:08:16.588Z,18.06
2023-07-03T06:09:16.577Z,18.04
2023-07-03T06:10:16.564Z,18.10
2023-07-03T06:11:16.566Z,18.07
2023-07-03T06:12:16.542Z,18.06
2023-07-03T06:13:16.531Z,17.95
2023-07-03T06:14:15.565Z,17.99
2023-07-03T06:15:16.530Z,18.10
2023-07-03T06:16:16.914Z,18.02
2023-07-03T06:17:15.668Z,17.95
2023-07-03T06:18:16.461Z,18.09
2023-07-03T06:19:16.435Z,18.12
2023-07-03T06:20:16.431Z,18.06
2023-07-03T06:21:16.420Z,17.95
2023-07-03T06:22:16.409Z,17.92
2023-07-03T06:23:16.385Z,17.95
2023-07-03T06:24:16.372Z,17.95
2023-07-03T06:25:16.364Z,17.82
2023-07-03T06:26:16.349Z,17.84
2023-07-03T06:27:16.345Z,17.82
2023-07-03T06:28:16.321Z,17.79
2023-07-03T06:29:16.326Z,17.70
2023-07-03T06:30:16.302Z,17.79
2023-07-03T06:31:16.320Z,17.88
2023-07-03T06:32:16.262Z,17.95
2023-07-03T06:33:16.277Z,18.00
2023-07-03T06:34:14.961Z,18.12
2023-07-03T06:35:16.326Z,18.19
2023-07-03T06:36:16.217Z,18.18
2023-07-03T06:37:16.194Z,18.19
2023-07-03T06:38:16.173Z,18.33
2023-07-03T06:39:16.183Z,18.36
2023-07-03T06:40:16.143Z,18.47
2023-07-03T06:41:16.142Z,18.49
2023-07-03T06:42:16.132Z,18.43
2023-07-03T06:43:16.099Z,18.43
2023-07-03T06:44:16.096Z,18.47
2023-07-03T06:45:16.080Z,18.58
2023-07-03T06:46:16.090Z,18.61
2023-07-03T06:47:16.059Z,18.70
2023-07-03T06:48:16.041Z,18.74
2023-07-03T06:49:16.028Z,18.84
2023-07-03T06:50:16.013Z,19.05
2023-07-03T06:51:16.014Z,19.35
2023-07-03T06:52:15.998Z,19.50
2023-07-03T06:53:15.983Z,19.50
2023-07-03T06:54:15.988Z,19.51
2023-07-03T06:55:15.948Z,19.57
2023-07-03T06:56:15.943Z,19.63
2023-07-03T06:57:15.924Z,19.76
2023-07-03T06:58:15.926Z,19.73
2023-07-03T06:59:15.898Z,19.69
2023-07-03T07:00:15.868Z,20.31
2023-07-03T07:01:15.847Z,20.93
2023-07-03T07:02:15.908Z,21.27
2023-07-03T07:03:15.928Z,21.42
2023-07-03T07:04:15.923Z,21.39
2023-07-03T07:05:15.902Z,21.17
2023-07-03T07:06:15.864Z,20.84
2023-07-03T07:07:15.765Z,20.71
2023-07-03T07:08:15.785Z,20.59
2023-07-03T07:09:15.750Z,20.31
2023-07-03T07:10:15.747Z,20.09
2023-07-03T07:11:15.753Z,20.20
2023-07-03T07:12:15.718Z,20.02
2023-07-03T07:13:15.718Z,19.87
2023-07-03T07:14:15.789Z,19.94
2023-07-03T07:15:15.657Z,20.02
2023-07-03T07:16:15.698Z,20.18
2023-07-03T07:17:15.665Z,20.35
2023-07-03T07:18:15.677Z,20.27
2023-07-03T07:19:15.673Z,20.31
2023-07-03T07:20:15.625Z,20.18
2023-07-03T07:21:15.625Z,19.95
2023-07-03T07:22:15.651Z,19.94
2023-07-03T07:23:15.598Z,19.80
2023-07-03T07:24:15.608Z,19.68
2023-07-03T07:25:16.049Z,19.54
2023-07-03T07:26:15.546Z,19.25
2023-07-03T07:27:15.599Z,18.90
2023-07-03T07:28:15.523Z,18.77
2023-07-03T07:29:16.033Z,18.77
2023-07-03T07:30:15.566Z,18.76
2023-07-03T07:31:15.611Z,18.77
2023-07-03T07:32:15.546Z,18.67
2023-07-03T07:33:15.414Z,18.68
2023-07-03T07:34:15.480Z,18.79
2023-07-03T07:35:15.394Z,18.87
2023-07-03T07:36:15.432Z,19.10
2023-07-03T07:37:15.373Z,19.28
2023-07-03T07:38:15.341Z,19.54
2023-07-03T07:39:15.333Z,19.83
2023-07-03T07:40:15.329Z,19.72
2023-07-03T07:41:15.318Z,19.55
2023-07-03T07:42:15.302Z,19.93
2023-07-03T07:43:15.275Z,20.84
2023-07-03T07:44:15.265Z,22.25
2023-07-03T07:45:15.239Z,23.38
2023-07-03T07:46:15.287Z,24.41
2023-07-03T07:47:15.225Z,24.61
2023-07-03T07:48:15.206Z,25.24
2023-07-03T07:49:15.205Z,25.27
2023-07-03T07:50:15.191Z,25.17
2023-07-03T07:51:15.200Z,24.67
2023-07-03T07:52:15.162Z,24.42
2023-07-03T07:53:15.154Z,23.83
2023-07-03T07:54:15.119Z,23.87
2023-07-03T07:55:15.127Z,23.42
2023-07-03T07:56:15.120Z,21.91
2023-07-03T07:57:15.093Z,21.67
2023-07-03T07:58:15.092Z,21.75
2023-07-03T07:59:15.051Z,21.17
2023-07-03T08:00:15.046Z,21.27
2023-07-03T08:01:15.079Z,21.42
2023-07-03T08:02:15.205Z,21.14
2023-07-03T08:03:15.113Z,21.17
2023-07-03T08:04:15.147Z,20.39
2023-07-03T08:05:15.441Z,19.79
2023-07-03T08:06:14.987Z,19.54
2023-07-03T08:07:14.950Z,19.54
2023-07-03T08:08:14.947Z,19.68
2023-07-03T08:09:14.936Z,19.63
2023-07-03T08:10:14.922Z,19.21
2023-07-03T08:11:14.912Z,19.32
2023-07-03T08:12:14.893Z,19.10
2023-07-03T08:13:14.879Z,19.42
2023-07-03T08:14:14.853Z,19.90
2023-07-03T08:15:14.844Z,20.18
2023-07-03T08:16:14.892Z,21.02
2023-07-03T08:17:14.338Z,21.46
2023-07-03T08:18:14.802Z,21.64
2023-07-03T08:19:16.000Z,22.94
2023-07-03T08:20:14.769Z,23.55
2023-07-03T08:21:14.749Z,24.45
2023-07-03T08:22:14.733Z,25.37
2023-07-03T08:23:14.737Z,25.80
2023-07-03T08:24:14.730Z,25.87
2023-07-03T08:25:14.711Z,25.64
2023-07-03T08:26:14.691Z,24.75
2023-07-03T08:27:14.666Z,22.39
2023-07-03T08:28:14.676Z,22.13
2023-07-03T08:29:13.690Z,22.16
2023-07-03T08:30:14.742Z,22.31
2023-07-03T08:31:14.640Z,22.07
2023-07-03T08:32:14.651Z,22.10
2023-07-03T08:33:15.244Z,22.09
2023-07-03T08:34:14.582Z,22.27
2023-07-03T08:37:14.559Z,21.53
2023-07-03T08:38:14.543Z,21.32
2023-07-03T08:39:14.516Z,20.61
2023-07-03T08:40:16.504Z,20.66
2023-07-03T08:41:14.614Z,20.76
2023-07-03T08:42:14.468Z,20.61
2023-07-03T08:43:14.475Z,20.47
2023-07-03T08:44:14.418Z,20.28
2023-07-03T08:45:14.482Z,20.33
2023-07-03T08:46:15.400Z,20.31
2023-07-03T08:47:14.462Z,20.27
2023-07-03T08:48:14.517Z,20.28
2023-07-03T08:49:14.357Z,20.00
2023-07-03T08:50:18.982Z,19.68
2023-07-03T08:51:15.336Z,19.47
2023-07-03T08:52:14.321Z,19.01
2023-07-03T08:53:14.299Z,19.20
2023-07-03T08:54:14.300Z,19.08
2023-07-03T08:55:14.282Z,19.28
2023-07-03T08:56:14.276Z,19.36
2023-07-03T08:57:14.280Z,19.55
2023-07-03T08:58:14.244Z,20.58
2023-07-03T08:59:14.215Z,22.39
2023-07-03T09:00:14.219Z,22.67
2023-07-03T09:01:14.261Z,23.38
2023-07-03T09:02:14.233Z,22.04
2023-07-03T09:03:14.249Z,21.99
2023-07-03T09:04:14.189Z,21.54
2023-07-03T09:05:14.466Z,21.92
2023-07-03T09:06:14.137Z,22.23
2023-07-03T09:07:14.095Z,22.12
2023-07-03T09:08:14.094Z,22.16
2023-07-03T09:09:14.094Z,21.53
2023-07-03T09:10:14.082Z,21.59
2023-07-03T09:11:14.051Z,22.22
2023-07-03T09:12:14.045Z,21.76
2023-07-03T09:13:14.046Z,21.82
2023-07-03T09:14:14.015Z,23.35
2023-07-03T09:15:14.014Z,23.53
2023-07-03T09:16:14.095Z,23.12
2023-07-03T09:17:14.098Z,23.24
2023-07-03T09:18:14.084Z,22.97
2023-07-03T09:19:13.944Z,23.20
2023-07-03T09:20:13.619Z,23.97
2023-07-03T09:21:13.912Z,23.38
2023-07-03T09:22:13.923Z,22.64
2023-07-03T09:23:14.048Z,23.26
2023-07-03T09:24:13.906Z,22.64
2023-07-03T09:25:14.222Z,22.59
2023-07-03T09:26:13.338Z,22.71
2023-07-03T09:27:13.845Z,22.59
2023-07-03T09:28:13.841Z,21.78
2023-07-03T09:29:14.023Z,21.34
2023-07-03T09:30:15.127Z,21.39
2023-07-03T09:31:14.862Z,22.14
2023-07-03T09:32:14.363Z,23.39
2023-07-03T09:33:13.800Z,22.84
2023-07-03T09:34:14.767Z,22.57
2023-07-03T09:35:13.735Z,22.34
2023-07-03T09:36:13.719Z,21.64
2023-07-03T09:37:14.493Z,21.41
2023-07-03T09:38:13.683Z,22.07
2023-07-03T09:39:13.898Z,22.77
2023-07-03T09:40:13.717Z,22.84
2023-07-03T09:41:13.654Z,22.90
2023-07-03T09:42:13.632Z,22.94
2023-07-03T09:43:13.621Z,22.47
2023-07-03T09:44:13.715Z,21.46
2023-07-03T09:45:13.568Z,21.29
2023-07-03T09:46:13.579Z,21.39
2023-07-03T09:47:13.567Z,21.85
2023-07-03T09:48:13.617Z,22.10
2023-07-03T09:49:13.535Z,22.16
2023-07-03T09:50:14.630Z,22.17
2023-07-03T09:51:13.768Z,21.67
2023-07-03T09:52:13.502Z,21.46
2023-07-03T09:53:14.221Z,21.05
2023-07-03T09:54:13.460Z,20.72
2023-07-03T09:55:13.443Z,20.72
2023-07-03T09:56:13.446Z,20.46
2023-07-03T09:57:13.420Z,20.39
2023-07-03T09:58:13.409Z,20.41
2023-07-03T09:59:13.393Z,20.42
2023-07-03T10:00:13.383Z,20.54
2023-07-03T10:07:13.361Z,20.72
2023-07-03T10:08:13.444Z,20.49
2023-07-03T10:11:13.287Z,20.62
2023-07-03T10:12:13.612Z,20.76
2023-07-03T10:13:13.197Z,20.84
2023-07-03T10:14:13.186Z,20.28
2023-07-03T10:15:13.173Z,20.41
2023-07-03T10:16:13.155Z,20.58
2023-07-03T10:17:13.221Z,20.71
2023-07-03T10:18:12.684Z,20.91
2023-07-03T10:19:13.114Z,21.13
2023-07-03T10:20:13.131Z,21.30
2023-07-03T10:21:13.110Z,20.86
2023-07-03T10:22:13.084Z,20.93
2023-07-03T10:23:13.077Z,21.17
2023-07-03T10:24:13.054Z,21.45
2023-07-03T10:25:13.021Z,21.56
2023-07-03T10:26:13.056Z,21.97
2023-07-03T10:27:13.104Z,22.12
2023-07-03T10:28:12.986Z,22.14
2023-07-03T10:29:12.999Z,22.28
2023-07-03T10:30:12.980Z,22.23
2023-07-03T10:31:12.993Z,22.34
2023-07-03T10:32:13.019Z,22.22
2023-07-03T10:33:13.014Z,21.85
2023-07-03T10:34:12.900Z,21.85
2023-07-03T10:35:12.911Z,22.02
2023-07-03T10:36:12.904Z,22.14
2023-07-03T10:37:12.887Z,22.20
2023-07-03T10:38:12.857Z,22.77
2023-07-03T10:39:12.832Z,23.04
2023-07-03T10:40:12.854Z,22.41
2023-07-03T10:41:12.823Z,22.43
2023-07-03T10:42:12.818Z,22.14
2023-07-03T10:43:12.802Z,22.02
2023-07-03T10:44:12.768Z,22.23
2023-07-03T10:45:12.802Z,22.52
2023-07-03T10:46:12.802Z,22.71
2023-07-03T10:47:12.755Z,22.83
2023-07-03T10:48:12.725Z,22.96
2023-07-03T10:49:12.718Z,23.09
2023-07-03T10:50:12.709Z,23.24
2023-07-03T10:51:12.700Z,22.01
2023-07-03T10:52:12.727Z,21.09
2023-07-03T10:53:12.640Z,21.11
2023-07-03T10:54:12.638Z,21.19
2023-07-03T10:55:12.633Z,21.41
2023-07-03T10:56:12.608Z,21.35
2023-07-03T10:57:12.582Z,20.90
2023-07-03T10:58:12.592Z,20.91
2023-07-03T10:59:12.681Z,21.26
2023-07-03T11:00:12.600Z,21.24
2023-07-03T11:01:12.599Z,21.20
2023-07-03T11:02:12.519Z,21.11
2023-07-03T11:03:12.658Z,21.02
2023-07-03T11:04:23.868Z,21.05
2023-07-03T11:05:13.499Z,20.95
2023-07-03T11:06:12.507Z,20.89
2023-07-03T11:07:12.480Z,20.93
2023-07-03T11:08:12.464Z,21.06
2023-07-03T11:09:12.444Z,21.09
2023-07-03T11:10:12.416Z,21.19
2023-07-03T11:11:12.388Z,21.26
2023-07-03T11:12:12.382Z,20.74
2023-07-03T11:13:12.427Z,20.87
2023-07-03T11:14:12.358Z,21.04
2023-07-03T11:15:12.347Z,21.02
2023-07-03T11:16:12.383Z,21.17
2023-07-03T11:17:12.314Z,21.24
2023-07-03T11:20:12.487Z,21.19
2023-07-03T11:23:12.691Z,21.76
2023-07-03T11:24:12.239Z,21.67
2023-07-03T11:25:12.226Z,21.98
2023-07-03T11:28:12.156Z,22.17
2023-07-03T11:29:12.141Z,22.43
2023-07-03T11:30:12.253Z,22.57
2023-07-03T11:31:12.205Z,22.57
2023-07-03T11:32:12.128Z,22.34
2023-07-03T11:33:12.088Z,22.23
2023-07-03T11:36:12.375Z,21.98
2023-07-03T11:37:12.042Z,21.92
2023-07-03T11:40:12.057Z,21.69
2023-07-03T11:44:11.938Z,22.32
2023-07-03T11:45:11.931Z,22.39
2023-07-03T11:46:11.914Z,22.44
2023-07-03T11:47:12.014Z,22.60
2023-07-03T11:48:11.885Z,22.54
2023-07-03T11:49:11.880Z,22.50
2023-07-03T11:50:11.383Z,22.39
2023-07-03T11:51:11.844Z,22.44
2023-07-03T11:52:11.887Z,22.52
2023-07-03T11:53:11.822Z,22.27
2023-07-03T11:54:11.812Z,22.60
2023-07-03T11:55:11.819Z,23.17
2023-07-03T11:56:14.341Z,23.52
2023-07-03T11:57:11.766Z,24.17
2023-07-03T11:58:21.052Z,23.58
2023-07-03T11:59:12.723Z,23.76
2023-07-03T12:00:11.768Z,23.75
2023-07-03T12:01:11.789Z,23.49
2023-07-03T12:02:11.700Z,23.07
2023-07-03T12:03:11.783Z,22.47
2023-07-03T12:04:11.835Z,22.41
2023-07-03T12:05:11.652Z,22.14
2023-07-03T12:06:11.657Z,21.60
2023-07-03T12:07:11.627Z,21.39
2023-07-03T12:08:11.653Z,21.36
2023-07-03T12:09:11.582Z,21.48
2023-07-03T12:10:11.567Z,21.50
2023-07-03T12:11:11.565Z,21.72
2023-07-03T12:12:11.554Z,22.01
2023-07-03T12:13:11.561Z,22.14
2023-07-03T12:14:11.518Z,22.12
2023-07-03T12:15:11.501Z,22.09
2023-07-03T12:16:11.509Z,22.23
2023-07-03T12:17:11.528Z,22.65
2023-07-03T12:18:11.460Z,22.56
2023-07-03T12:19:11.448Z,22.35
2023-07-03T12:20:11.439Z,21.94
2023-07-03T12:21:11.439Z,22.12
2023-07-03T12:22:11.419Z,22.23
2023-07-03T12:23:11.412Z,21.76
2023-07-03T12:24:11.383Z,21.53
2023-07-03T12:25:11.395Z,21.67
2023-07-03T12:26:11.368Z,21.57
2023-07-03T12:27:11.351Z,21.64
2023-07-03T12:28:11.356Z,21.79
2023-07-03T12:29:11.295Z,21.94
2023-07-03T12:30:11.288Z,21.90
2023-07-03T12:31:11.319Z,21.82
2023-07-03T12:32:11.262Z,21.91
2023-07-03T12:33:11.272Z,21.85
2023-07-03T12:34:11.529Z,21.79
2023-07-03T12:35:11.226Z,21.81
2023-07-03T12:36:11.234Z,21.67
2023-07-03T12:37:11.196Z,21.71
2023-07-03T12:38:11.176Z,21.81
2023-07-03T12:39:11.167Z,21.39
2023-07-03T12:40:11.165Z,21.53
2023-07-03T12:41:11.148Z,21.53
2023-07-03T12:42:11.171Z,21.71
2023-07-03T12:43:16.794Z,22.49
2023-07-03T12:44:11.132Z,22.99
2023-07-03T12:45:11.108Z,23.11
2023-07-03T12:46:11.088Z,23.32
2023-07-03T12:47:11.083Z,23.60
2023-07-03T12:48:11.051Z,23.58
2023-07-03T12:49:11.038Z,23.52
2023-07-03T12:50:11.054Z,23.20
2023-07-03T12:51:10.994Z,23.34
2023-07-03T12:52:11.007Z,23.52
2023-07-03T12:53:10.983Z,23.09
2023-07-03T12:54:10.994Z,23.38
2023-07-03T12:55:14.936Z,24.17
2023-07-03T12:56:10.985Z,24.57
2023-07-03T12:57:10.941Z,24.39
2023-07-03T12:58:10.894Z,24.87
2023-07-03T12:59:10.908Z,24.92
2023-07-03T13:00:10.901Z,24.68
2023-07-03T13:01:10.917Z,24.42
2023-07-03T13:02:10.876Z,24.32
2023-07-03T13:03:10.843Z,24.20
2023-07-03T13:04:10.877Z,23.97
2023-07-03T13:05:10.932Z,24.56
2023-07-03T13:06:10.849Z,24.77
2023-07-03T13:07:10.788Z,24.97
2023-07-03T13:08:10.770Z,24.64
2023-07-03T13:09:10.776Z,23.49
2023-07-03T13:10:10.755Z,23.75
2023-07-03T13:11:10.716Z,23.62
2023-07-03T13:12:10.729Z,23.77
2023-07-03T13:13:10.812Z,24.14
2023-07-03T13:14:10.701Z,24.57
2023-07-03T13:15:10.771Z,24.38